Disclaimer: Data is provisional and is subject to revision. Not to be used as official record

Enter Station name or Station Shef Code

Query Executed Fri May 24 18:57:27 PDT 2024

SLPT_WX LMC Weather Station 41.5297 -119.05457
5909 Lower Mahogany Creek

Date / Time Air Temp C (C) Relative Humidity (%) Pressure (hPa) Wind Speed (kmh) Wind Direction (Degree) Dew Point (C) Rainfall Annual (mm) Solar Radiation (w/m^2) Snow Depth (cm) SWE (mm) Battery (V) Wind Gust (kmh) Wind Gust Direction (degree)
2024-05-24 06:00 PM 14.90 25.20 812.70 15.54 280.70 -4.84 259.60 142.70 0.60 4.34 13.89 31.91 296.50
2024-05-24 05:00 PM 15.10 25.50 813.00 15.13 274.50 -4.52 259.60 143.70 0.30 2.99 13.89 30.11 236.90
2024-05-24 04:00 PM 15.70 23.40 813.10 12.18 254.50 -5.14 259.60 313.40 1.00 2.96 13.86 29.51 259.40
2024-05-24 03:00 PM 15.10 24.70 814.00 13.43 218.60 -4.94 259.60 202.50 0.90 1.33 13.83 34.07 220.50
2024-05-24 02:00 PM 16.40 20.40 814.10 13.24 205.70 -6.36 259.60 395.10 275.10 0.00 13.74 29.75 224.00
2024-05-24 01:00 PM 16.20 22.20 814.40 14.17 219.30 -5.42 259.60 1,213.00 2.70 0.00 13.74 30.11 205.30
2024-05-24 12:00 PM 15.50 19.30 815.10 11.11 206.40 -7.82 259.60 699.80 1.00 0.00 13.74 30.95 225.80
2024-05-24 11:00 AM 14.60 23.50 815.60 12.61 205.90 -6.02 259.60 1,153.00 3.10 0.00 13.81 22.07 195.10
2024-05-24 10:00 AM 13.70 27.60 816.00 10.47 206.70 -4.67 259.60 870.00 275.10 0.00 13.83 19.55 212.40
2024-05-24 09:00 AM 11.70 36.10 816.40 7.05 198.40 -2.83 259.60 556.80 0.30 1.11 13.93 16.31 196.00
2024-05-24 08:00 AM 9.40 40.30 816.70 0.41 245.40 -3.42 259.60 466.30 0.80 4.08 14.50 4.68 179.90
2024-05-24 07:00 AM 3.20 59.00 816.90 0.39 73.47 -4.04 259.60 245.30 1.20 7.08 14.79 3.36 84.50
2024-05-24 06:00 AM -4.60 81.70 816.90 0.43 83.20 -7.25 259.60 85.00 -1.10 7.85 12.82 4.20 126.00
2024-05-24 05:00 AM -2.40 76.20 817.20 2.13 25.17 -6.02 259.60 -12.70 -1.40 7.97 12.64 4.80 25.88
2024-05-24 04:00 AM -2.50 76.40 817.40 2.63 67.70 -6.08 259.60 -11.90 1.60 7.57 12.69 6.60 70.13
2024-05-24 03:00 AM -1.70 67.10 817.50 2.06 31.03 -7.00 259.60 -14.50 1.50 7.70 12.75 6.84 354.50
2024-05-24 02:00 AM 0.60 62.00 817.90 2.94 59.68 -5.84 259.60 -13.80 2.00 7.57 12.93 7.08 88.90
2024-05-24 01:00 AM 1.30 62.40 818.30 3.12 360.00 -5.09 259.60 -4.10 -0.60 7.51 13.12 12.24 27.41
2024-05-24 12:00 AM 5.40 50.20 818.50 7.41 45.12 -4.14 259.60 -3.80 2.40 7.34 13.25 14.04 25.15
2024-05-23 11:00 PM 4.20 52.20 818.70 3.71 48.56 -4.73 259.60 -3.60 2.00 8.29 13.38 11.16 34.49
2024-05-23 10:00 PM 2.20 52.70 818.90 3.09 358.50 -6.47 259.60 -5.10 -1.10 8.43 13.52 7.44 25.11
2024-05-23 09:00 PM 7.40 39.60 818.80 3.60 57.56 -5.45 259.60 -5.70 0.90 8.08 13.70 8.88 3.17
2024-05-23 08:00 PM 10.60 32.10 818.70 4.95 104.40 -5.37 259.60 45.40 1.40 7.00 13.96 13.32 98.70
2024-05-23 07:00 PM 13.80 23.50 818.60 7.56 75.93 -6.69 259.60 240.60 1.10 4.05 13.87 18.71 35.94
2024-05-23 06:00 PM 14.20 23.30 818.70 6.57 32.67 -6.47 259.60 84.10 -0.50 0.00 13.79 17.99 34.93
2024-05-23 05:00 PM 14.60 21.70 818.90 4.36 14.08 -7.06 259.60 651.60 1.00 0.00 13.83 16.31 11.57
2024-05-23 04:00 PM 13.70 23.10 819.30 7.16 18.05 -7.00 259.60 851.00 -1.10 0.00 13.90 20.51 21.98
2024-05-23 03:00 PM 13.10 25.20 819.80 8.04 7.63 -6.38 259.60 989.00 2.00 0.00 13.90 21.83 7.26
2024-05-23 02:00 PM 12.70 27.80 820.00 8.91 29.15 -5.43 259.60 1,083.00 0.70 0.00 13.92 20.87 4.91
2024-05-23 01:00 PM 10.60 32.10 820.30 9.23 11.71 -5.37 259.60 1,118.00 275.10 0.00 13.97 21.59 1.11
2024-05-23 12:00 PM 9.50 38.90 820.50 12.13 14.09 -3.80 259.60 1,083.00 1.10 0.00 13.95 22.19 353.00
2024-05-23 11:00 AM 7.30 43.30 820.30 10.27 33.69 -4.36 259.60 991.00 2.20 0.00 14.02 24.59 57.88
2024-05-23 10:00 AM 5.50 48.50 820.40 9.71 49.82 -4.50 259.60 851.00 1.10 0.00 14.05 20.75 25.07
2024-05-23 09:00 AM 3.90 54.60 820.60 12.25 33.93 -4.41 259.60 665.50 2.00 2.96 14.52 22.67 75.43
2024-05-23 08:00 AM 2.20 61.20 820.50 11.43 45.10 -4.50 259.60 457.70 1.80 5.35 14.67 22.67 62.51
2024-05-23 07:00 AM 0.20 68.70 820.40 7.67 47.64 -4.87 259.60 263.70 3.00 7.30 14.45 13.68 39.53
2024-05-23 06:00 AM -2.40 76.50 820.30 8.02 18.83 -5.97 259.60 5.10 1.10 7.37 12.69 20.03 313.20
2024-05-23 05:00 AM -1.80 70.80 819.70 5.89 42.35 -6.40 259.60 -12.80 0.80 7.65 12.59 15.23 0.07
2024-05-23 04:00 AM -2.80 72.60 819.70 6.61 29.41 -7.04 259.60 -14.50 -0.60 7.83 12.63 14.64 337.20
2024-05-23 03:00 AM -3.70 74.50 819.60 4.78 50.32 -7.57 259.60 -13.90 -0.40 7.46 12.66 9.96 68.09
2024-05-23 02:00 AM -0.80 63.40 819.60 6.12 37.94 -6.88 259.60 -12.70 -1.10 7.35 12.77 13.56 30.17
2024-05-23 01:00 AM 0.00 59.70 819.30 9.32 30.31 -6.90 259.60 -14.40 1.10 7.62 12.95 17.63 349.40
2024-05-23 12:00 AM -0.50 57.60 818.90 11.38 357.20 -7.84 259.60 -14.90 1.20 8.02 13.15 21.23 0.29
2024-05-22 11:00 PM 1.10 51.30 818.90 8.83 42.42 -7.84 259.60 -14.70 1.30 7.76 13.39 16.67 15.34
2024-05-22 10:00 PM 2.50 40.00 818.70 8.09 325.80 -9.74 259.60 -4.30 3.00 7.73 13.62 15.83 309.50
2024-05-22 09:00 PM 3.30 36.20 818.10 9.35 292.00 -10.28 259.60 -5.10 2.60 7.43 13.86 22.79 292.40
2024-05-22 08:00 PM 7.00 27.00 817.50 20.57 288.50 -10.73 259.60 43.30 2.50 7.10 14.12 34.19 280.20
2024-05-22 07:00 PM 8.90 20.60 816.90 29.06 301.90 -12.49 259.60 224.00 1.80 6.05 14.02 47.86 306.70
2024-05-22 06:00 PM 10.60 15.50 816.10 36.61 301.70 -14.58 259.60 428.50 2.40 3.72 13.99 59.02 286.20
2024-05-22 05:00 PM 12.20 16.40 815.50 38.12 298.30 -12.59 259.60 650.00 275.10 2.30 13.95 60.34 286.20
2024-05-22 04:00 PM 13.10 26.90 815.30 33.99 288.70 -5.52 259.60 829.00 275.10 0.00 13.92 57.46 293.00
2024-05-22 03:00 PM 13.60 23.70 815.30 33.04 274.90 -6.75 259.60 957.00 0.60 0.00 13.90 55.18 274.30
2024-05-22 02:00 PM 14.80 19.50 815.50 26.22 272.50 -8.27 259.60 1,074.00 0.60 0.00 13.90 56.02 283.00
2024-05-22 01:00 PM 14.30 23.70 816.00 24.64 269.20 -6.16 259.60 1,121.00 1.20 0.00 13.90 43.07 281.80
2024-05-22 12:00 PM 12.80 35.90 816.10 23.27 274.40 -1.93 259.60 351.80 1.10 0.00 13.89 40.79 280.80
2024-05-22 11:00 AM 11.80 41.40 816.40 19.24 271.00 -0.89 259.60 1,165.00 2.20 0.00 13.92 33.47 270.10
2024-05-22 10:00 AM 11.40 44.80 816.70 24.71 276.40 -0.17 259.60 967.00 0.60 0.74 14.11 37.55 288.10
2024-05-22 09:00 AM 8.30 61.10 816.90 13.39 253.80 1.25 259.60 125.40 1.80 6.23 14.56 30.11 269.70
2024-05-22 08:00 AM 7.40 70.10 817.30 13.34 260.70 2.31 259.60 87.00 0.30 6.51 14.62 24.71 289.50
2024-05-22 07:00 AM 7.50 69.60 817.10 15.26 260.20 2.31 259.60 85.60 -0.10 6.51 14.45 24.95 291.20
2024-05-22 06:00 AM 6.50 72.10 817.20 10.18 271.40 1.84 259.60 96.40 0.10 6.92 12.90 21.23 261.60
2024-05-22 05:00 AM 5.70 71.40 817.20 9.58 244.50 0.94 259.60 -3.60 0.20 6.88 12.75 20.75 252.00
2024-05-22 04:00 AM 7.40 59.30 817.50 6.56 261.00 -0.01 259.60 -4.20 0.30 6.94 12.78 16.43 255.60
2024-05-22 03:00 AM 7.80 57.50 817.90 5.71 226.40 -0.06 259.60 -1.60 0.10 7.10 12.86 11.76 225.50
2024-05-22 02:00 AM 8.40 54.40 818.30 8.60 247.40 -0.26 259.60 -2.40 1.00 7.09 12.95 17.75 236.50
2024-05-22 01:00 AM 8.90 48.80 818.70 10.57 278.60 -1.29 259.60 -2.60 0.50 6.97 13.06 20.27 287.70
2024-05-22 12:00 AM 9.20 45.60 818.90 6.37 283.00 -1.93 259.60 -2.10 0.10 7.12 13.19 15.71 277.10
2024-05-21 11:00 PM 7.40 37.30 819.10 4.37 28.61 -6.24 259.60 -2.00 -0.30 7.67 13.33 9.36 36.48
2024-05-21 10:00 PM 5.20 42.50 819.20 6.16 332.00 -6.51 259.60 -4.50 -0.80 7.74 13.43 10.32 293.20
2024-05-21 09:00 PM 8.40 34.00 819.20 5.29 300.70 -6.56 259.60 -5.10 0.30 7.47 13.65 9.36 305.60
2024-05-21 08:00 PM 11.90 27.10 819.30 10.99 302.40 -6.46 259.60 16.80 2.90 6.89 13.93 23.87 297.10
2024-05-21 07:00 PM 15.10 20.20 819.40 14.09 286.10 -7.57 259.60 184.40 1.40 4.29 13.80 24.47 302.90
2024-05-21 06:00 PM 16.20 16.50 819.40 11.48 211.00 -9.26 259.60 388.00 275.10 0.00 13.77 24.59 241.00
2024-05-21 05:00 PM 16.60 18.30 819.60 11.76 191.30 -7.60 259.60 618.20 1.90 0.00 13.85 24.35 195.50
2024-05-21 04:00 PM 15.90 18.10 820.10 12.81 203.40 -8.32 259.60 803.00 1.50 0.00 13.76 32.15 203.10
2024-05-21 03:00 PM 15.40 19.50 820.80 11.95 195.20 -7.77 259.60 968.00 275.10 0.00 13.83 25.67 192.60
2024-05-21 02:00 PM 14.20 20.00 821.50 11.66 205.20 -8.44 259.60 1,016.00 2.80 0.00 13.83 27.47 202.50
2024-05-21 01:00 PM 13.30 21.60 821.90 9.24 188.60 -8.21 259.60 1,065.00 275.10 0.00 13.83 25.07 206.60
2024-05-21 12:00 PM 12.30 24.40 822.30 8.00 211.90 -7.48 259.60 1,070.00 3.60 0.00 13.83 20.51 212.20
2024-05-21 11:00 AM 11.40 22.90 822.50 6.95 272.10 -9.06 259.60 973.00 275.10 0.00 13.83 17.75 280.70
2024-05-21 10:00 AM 10.30 25.00 822.80 4.96 257.10 -8.87 259.60 843.00 4.70 0.00 13.89 14.40 324.50
2024-05-21 09:00 AM 8.90 28.20 822.90 4.56 221.90 -8.54 259.60 651.10 1.30 1.39 14.35 13.80 198.50
2024-05-21 08:00 AM 6.60 37.90 822.90 2.59 351.30 -6.74 259.60 448.60 2.40 4.77 14.57 6.72 336.90
2024-05-21 07:00 AM 0.70 57.30 823.00 3.65 11.85 -6.78 259.60 234.70 0.90 7.34 14.76 8.28 352.90
2024-05-21 06:00 AM -6.80 84.90 822.70 3.09 20.73 -8.91 259.60 64.80 1.40 8.00 12.72 7.44 30.87
2024-05-21 05:00 AM -5.80 74.00 822.70 3.65 10.55 -9.69 259.60 -12.60 1.90 7.94 12.57 7.80 348.00
2024-05-21 04:00 AM -4.20 68.60 822.50 1.01 19.98 -9.11 259.60 -13.40 -0.20 8.10 12.62 7.58 35.10
2024-05-21 03:00 AM -2.90 69.20 822.30 3.91 12.44 -7.75 259.60 -10.70 0.50 7.65 12.68 9.84 46.83
2024-05-21 02:00 AM -0.40 56.70 822.30 7.05 18.72 -7.95 259.60 -13.00 1.70 8.01 12.72 8.88 12.36
2024-05-21 01:00 AM -0.80 53.70 822.30 6.40 8.02 -9.02 259.60 -14.00 3.00 7.76 12.86 8.88 17.76
2024-05-21 12:00 AM -0.10 51.30 822.40 4.80 354.60 -8.95 259.60 -13.50 -0.10 8.03 13.05 8.52 354.50
2024-05-20 11:00 PM -0.90 52.50 822.30 5.76 48.36 -9.40 259.60 -15.70 0.60 8.06 13.26 11.88 66.93
2024-05-20 10:00 PM 2.20 40.40 822.20 8.14 59.95 -9.88 259.60 -15.30 2.00 8.03 13.50 11.16 65.46
2024-05-20 09:00 PM 2.90 36.90 821.70 7.34 47.02 -10.40 259.60 -15.30 2.40 8.14 13.76 14.64 18.89
2024-05-20 08:00 PM 7.00 29.00 821.50 13.23 16.44 -9.83 259.60 26.50 2.20 7.07 14.11 23.99 11.18
2024-05-20 07:00 PM 9.90 24.60 821.00 13.94 18.76 -9.42 259.60 265.50 2.20 6.13 14.02 26.39 12.22
2024-05-20 06:00 PM 9.40 27.00 820.80 14.17 16.74 -8.66 259.60 137.50 4.10 4.46 14.01 29.15 0.85
2024-05-20 05:00 PM 11.00 23.70 820.80 14.01 12.36 -8.96 259.60 799.20 4.80 0.00 13.92 28.19 32.55
2024-05-20 04:00 PM 10.40 24.60 820.70 13.09 27.95 -8.99 259.60 974.00 3.70 0.00 13.96 33.83 341.70
2024-05-20 03:00 PM 10.60 25.30 820.60 13.52 22.60 -8.46 259.60 1,107.00 2.10 0.00 13.99 30.11 17.20
2024-05-20 02:00 PM 8.90 28.80 821.00 13.19 22.80 -8.26 259.60 1,352.00 275.10 0.00 14.02 27.95 46.82
2024-05-20 01:00 PM 9.50 26.10 820.80 14.80 14.85 -9.01 259.60 1,130.00 2.00 0.00 14.08 30.83 351.20
2024-05-20 12:00 PM 8.40 31.50 821.00 15.75 23.43 -7.55 259.60 1,134.00 2.50 0.00 14.02 31.79 8.22
2024-05-20 11:00 AM 7.00 37.50 821.00 16.45 40.88 -6.52 259.60 1,005.00 275.10 0.00 14.10 31.19 39.79
2024-05-20 10:00 AM 6.20 39.90 821.00 15.26 36.75 -6.43 259.60 887.00 1.90 0.67 14.08 29.99 31.13
2024-05-20 09:00 AM 4.40 48.10 821.00 15.70 38.07 -5.62 259.60 289.00 1.20 2.84 14.55 29.63 17.85
2024-05-20 08:00 AM 3.30 54.20 820.80 9.81 49.46 -5.07 259.60 444.50 4.50 5.43 14.63 18.23 38.90
2024-05-20 07:00 AM 1.30 59.40 820.80 7.03 18.62 -5.74 259.60 244.20 1.10 7.26 14.62 12.24 39.73
2024-05-20 06:00 AM -1.80 67.60 820.60 6.72 34.08 -7.00 259.60 59.60 3.20 7.75 12.72 12.12 42.28
2024-05-20 05:00 AM -1.90 63.30 820.40 7.23 0.00 -7.95 259.60 -13.90 2.00 7.85 12.57 13.20 22.73
2024-05-20 04:00 AM -1.50 62.40 820.30 7.79 31.17 -7.75 259.60 -13.80 -0.60 7.75 12.67 22.07 44.70
2024-05-20 03:00 AM 1.00 51.90 820.10 10.04 49.96 -7.78 259.60 -13.80 2.90 7.58 12.72 23.63 55.73
2024-05-20 02:00 AM -0.10 57.60 820.30 6.11 38.12 -7.46 259.60 -14.40 2.00 7.85 12.84 11.76 50.65
2024-05-20 01:00 AM 1.10 54.90 820.50 6.38 32.73 -6.96 259.60 -15.10 1.80 7.52 13.03 13.20 54.34
2024-05-20 12:00 AM 1.60 50.30 820.30 6.02 31.30 -7.63 259.60 -4.30 1.30 7.80 13.24 17.87 31.71
2024-05-19 11:00 PM 3.20 44.10 819.90 7.75 15.60 -7.85 259.60 -4.40 3.70 7.72 13.37 19.55 34.93
2024-05-19 10:00 PM 4.20 37.70 819.70 8.19 28.02 -8.96 259.60 -5.10 2.90 7.82 13.53 19.79 21.37
2024-05-19 09:00 PM 8.50 28.50 819.20 10.74 38.76 -8.75 259.60 -3.50 3.90 6.85 13.70 23.51 47.98
2024-05-19 08:00 PM 10.20 27.40 818.70 8.72 19.75 -7.78 259.60 11.30 1.00 5.97 14.00 19.43 299.80
2024-05-19 07:00 PM 12.40 18.90 818.50 13.31 313.00 -10.65 259.60 86.40 1.70 4.49 13.92 25.79 332.20
2024-05-19 06:00 PM 12.90 15.40 818.50 14.42 313.90 -12.80 259.60 180.50 1.80 4.55 13.92 29.27 303.00
2024-05-19 05:00 PM 13.60 12.60 818.60 11.23 310.90 -14.70 259.60 343.80 3.10 1.85 13.89 25.43 298.80
2024-05-19 04:00 PM 13.40 14.20 818.80 14.10 297.40 -13.40 259.60 385.20 2.20 0.00 13.87 30.71 333.20
2024-05-19 03:00 PM 13.70 15.30 819.30 11.90 285.30 -12.23 259.60 989.00 1.90 0.00 13.90 26.15 292.90
2024-05-19 02:00 PM 12.90 15.70 819.80 12.10 291.30 -12.56 259.60 738.80 1.20 0.00 13.90 40.07 351.80
2024-05-19 01:00 PM 12.10 20.00 819.90 7.28 285.50 -10.19 259.60 1,123.00 2.00 0.00 13.90 25.19 220.50
2024-05-19 12:00 PM 9.30 29.30 820.60 7.34 317.10 -7.70 259.60 1,098.00 275.10 0.00 13.92 23.15 290.10
2024-05-19 11:00 AM 7.60 40.40 820.80 7.06 41.02 -5.01 259.60 634.00 0.20 0.00 13.99 17.63 47.78
2024-05-19 10:00 AM 6.10 45.90 820.80 9.37 37.98 -4.68 259.60 599.00 0.70 1.24 14.08 19.43 35.50
2024-05-19 09:00 AM 4.00 53.60 821.00 10.01 38.72 -4.57 259.60 414.30 1.70 3.34 14.51 23.39 43.69
2024-05-19 08:00 AM 2.90 58.60 821.10 11.83 53.29 -4.41 259.60 443.50 1.30 5.26 14.64 20.75 40.23
2024-05-19 07:00 AM 1.20 64.20 820.80 8.74 36.96 -4.81 259.60 237.10 0.50 7.63 14.71 17.63 66.77
2024-05-19 06:00 AM -0.60 70.40 820.40 7.45 35.09 -5.32 259.60 58.20 1.00 7.80 12.73 15.23 40.97
2024-05-19 05:00 AM -0.50 67.00 819.80 9.00 42.81 -5.87 259.60 -13.70 0.90 7.71 12.62 17.03 55.66
2024-05-19 04:00 AM -0.30 66.10 819.70 7.37 38.41 -5.86 259.60 -14.60 2.00 7.75 12.67 16.79 14.92
2024-05-19 03:00 AM 0.80 56.40 819.40 7.18 37.57 -6.89 259.60 -11.50 1.40 7.58 12.72 14.16 19.98
2024-05-19 02:00 AM 1.80 41.00 819.20 5.05 18.23 -10.06 259.60 -14.80 -1.00 8.14 12.84 10.20 354.60
2024-05-19 01:00 AM 1.40 51.30 819.00 2.60 40.45 -7.56 259.60 -4.30 -0.40 7.86 13.03 7.08 46.02
2024-05-19 12:00 AM 6.90 33.40 818.80 4.76 278.50 -8.11 259.60 -3.80 -0.60 7.22 13.14 13.08 253.90
2024-05-18 11:00 PM 9.30 28.50 818.60 3.95 210.50 -8.05 259.60 -2.90 1.10 7.32 13.27 8.04 172.70
2024-05-18 10:00 PM 10.60 32.80 818.30 7.68 311.20 -5.08 259.60 -4.70 0.40 7.36 13.41 13.68 299.20
2024-05-18 09:00 PM 11.70 31.30 817.70 9.41 298.50 -4.74 259.60 -4.50 1.30 6.75 13.59 19.07 309.10
2024-05-18 08:00 PM 14.80 25.00 817.10 19.06 307.70 -5.03 259.60 15.40 1.10 6.22 13.87 30.83 301.20
2024-05-18 07:00 PM 17.80 23.70 816.40 19.94 302.70 -3.20 259.60 205.10 1.30 4.33 13.74 32.03 295.80
2024-05-18 06:00 PM 19.10 18.40 816.40 20.76 283.10 -5.48 259.60 239.70 275.10 2.40 13.70 35.27 332.20
2024-05-18 05:00 PM 20.40 14.40 816.60 22.09 287.60 -7.62 259.60 538.90 275.10 0.00 13.68 39.59 286.60
2024-05-18 04:00 PM 20.80 14.60 816.70 22.89 284.00 -7.12 259.60 745.10 2.40 0.00 13.68 43.67 285.50
2024-05-18 03:00 PM 21.50 10.80 817.20 23.79 287.10 -10.43 259.60 977.00 1.60 0.00 13.68 44.03 305.10
2024-05-18 02:00 PM 21.60 10.40 817.50 18.85 265.70 -10.83 259.60 1,083.00 2.60 0.00 13.68 43.07 255.50
2024-05-18 01:00 PM 20.10 19.10 818.10 11.89 204.50 -4.16 259.60 1,110.00 1.80 0.00 13.68 31.67 205.70
2024-05-18 12:00 PM 18.60 22.80 818.90 12.59 191.20 -3.04 259.60 1,074.00 1.40 0.00 13.69 23.03 189.70
2024-05-18 11:00 AM 16.80 23.70 819.60 11.31 203.40 -4.04 259.60 996.00 1.00 0.00 13.72 20.15 200.40
2024-05-18 10:00 AM 15.40 24.80 819.60 11.89 199.20 -4.63 259.60 846.00 3.70 0.00 13.77 21.71 190.30
2024-05-18 09:00 AM 14.30 29.80 819.80 8.55 205.80 -3.12 259.60 662.80 1.60 0.00 13.92 18.35 203.80
2024-05-18 08:00 AM 10.10 31.40 819.90 0.79 242.70 -6.10 259.60 445.70 1.10 4.00 14.46 4.68 234.00
2024-05-18 07:00 AM 4.00 48.40 820.10 1.44 47.80 -5.91 259.60 228.80 0.90 7.17 14.78 5.40 38.67
2024-05-18 06:00 AM -1.90 72.80 820.00 3.27 42.32 -6.13 259.60 50.80 0.20 7.88 12.68 7.20 40.14
2024-05-18 05:00 AM -2.40 71.10 819.90 4.04 28.66 -6.92 259.60 -13.70 -0.40 7.58 12.63 7.92 46.72
2024-05-18 04:00 AM 0.70 52.10 820.20 5.24 26.90 -8.01 259.60 -14.40 -2.30 7.68 12.69 9.60 349.30
2024-05-18 03:00 AM 0.50 48.90 820.10 6.40 11.21 -9.01 259.60 -14.50 0.40 7.71 12.77 10.32 32.78
2024-05-18 02:00 AM 2.60 43.40 820.10 6.75 4.39 -8.61 259.60 -3.40 1.10 7.83 12.91 14.88 330.80
2024-05-18 01:00 AM 4.20 38.60 820.30 8.15 8.40 -8.66 259.60 -4.10 0.30 7.68 13.01 12.48 353.90
2024-05-18 12:00 AM 5.10 35.40 820.30 7.16 6.40 -8.96 259.60 -3.20 1.10 8.13 13.13 12.72 351.40
2024-05-17 11:00 PM 5.20 37.70 820.30 6.89 11.25 -8.07 259.60 -4.60 0.50 7.95 13.26 11.88 16.65
2024-05-17 10:00 PM 9.20 23.50 820.30 11.12 61.45 -10.59 259.60 -6.00 1.10 7.88 13.41 20.03 58.87
2024-05-17 09:00 PM 11.00 20.60 819.90 11.17 58.33 -10.74 259.60 -5.10 0.40 7.52 13.58 17.15 59.73
2024-05-17 08:00 PM 12.50 22.60 819.70 10.61 17.36 -8.30 259.60 16.40 1.70 6.66 13.87 19.67 48.12
2024-05-17 07:00 PM 17.60 23.90 819.30 11.57 340.70 -3.25 259.60 196.10 275.10 3.40 13.74 24.23 309.00
2024-05-17 06:00 PM 18.80 22.40 819.20 12.75 345.60 -3.11 259.60 397.50 0.30 0.00 13.70 28.07 340.70
2024-05-17 05:00 PM 19.20 20.20 819.20 13.22 346.50 -4.16 259.60 613.90 1.40 0.00 13.70 29.03 347.10
2024-05-17 04:00 PM 19.10 19.20 819.20 12.14 344.40 -4.92 259.60 808.00 1.30 0.00 13.71 28.79 332.00
2024-05-17 03:00 PM 19.60 16.20 819.40 11.50 358.70 -6.74 259.60 966.00 1.90 0.00 13.70 27.47 314.60
2024-05-17 02:00 PM 18.80 16.10 819.80 12.11 328.50 -7.46 259.60 1,075.00 275.10 0.00 13.74 31.91 326.70
2024-05-17 01:00 PM 18.60 14.10 819.80 14.38 330.60 -9.33 259.60 1,108.00 2.40 0.00 13.75 31.55 321.70
2024-05-17 12:00 PM 18.00 17.60 819.90 13.95 331.20 -6.96 259.60 1,084.00 1.70 0.00 13.70 28.55 326.70
2024-05-17 11:00 AM 16.40 18.90 820.20 13.96 329.90 -7.35 259.60 1,008.00 1.20 0.00 13.74 29.15 310.10
2024-05-17 10:00 AM 15.60 26.50 820.10 9.14 328.40 -3.58 259.60 843.00 1.60 0.00 13.76 24.23 313.10
2024-05-17 09:00 AM 14.20 30.20 819.90 7.52 349.60 -3.03 259.60 659.00 1.10 0.05 13.89 22.79 339.80
2024-05-17 08:00 AM 12.60 35.90 819.70 5.17 37.41 -2.11 259.60 450.00 2.00 3.40 14.39 11.40 30.25
2024-05-17 07:00 AM 7.00 63.50 819.40 2.87 24.81 0.55 259.60 247.20 0.80 6.43 14.69 7.20 337.10
2024-05-17 06:00 AM 0.50 83.90 818.90 2.42 353.80 -1.90 259.60 58.00 0.50 7.27 12.77 11.76 321.60
2024-05-17 05:00 AM 4.20 69.90 818.60 2.82 75.94 -0.80 259.60 -3.20 -1.10 7.32 12.68 8.76 0.40
2024-05-17 04:00 AM 3.40 71.50 818.70 2.61 95.90 -1.26 259.60 -13.90 -0.20 7.16 12.71 7.44 80.50
2024-05-17 03:00 AM 3.20 66.50 818.80 4.60 26.95 -2.44 259.60 -4.40 2.10 7.37 12.80 9.24 50.75
2024-05-17 02:00 AM 5.00 64.80 818.60 5.06 61.41 -1.07 259.60 -3.50 1.00 7.13 12.86 9.48 53.29
2024-05-17 01:00 AM 9.30 49.10 818.80 7.30 57.17 -0.83 259.60 -2.40 -0.10 7.27 12.98 11.04 46.05
2024-05-17 12:00 AM 7.30 62.10 818.90 6.22 24.23 0.53 259.60 -4.30 0.70 7.41 13.06 13.20 330.10
2024-05-16 11:00 PM 11.70 45.30 818.70 5.02 21.46 0.26 259.60 -4.40 -0.70 7.25 13.18 7.32 62.81
2024-05-16 10:00 PM 14.80 33.80 818.30 2.30 105.00 -0.98 259.60 -4.20 -0.50 7.09 13.31 6.00 116.00
2024-05-16 09:00 PM 14.70 32.40 818.00 2.50 359.10 -1.65 259.60 -5.00 -0.40 6.96 13.48 13.92 308.50
2024-05-16 08:00 PM 18.80 26.60 817.70 11.99 311.70 -0.78 259.60 21.80 1.40 5.68 13.72 22.43 317.20
2024-05-16 07:00 PM 21.70 19.00 817.70 19.01 299.70 -2.92 259.60 200.80 1.30 2.69 13.61 30.83 313.60
2024-05-16 06:00 PM 23.30 21.80 817.70 19.19 303.90 0.28 259.60 428.80 0.40 0.00 13.57 31.19 298.40
2024-05-16 05:00 PM 24.00 14.90 817.90 18.17 291.50 -4.30 259.60 622.40 275.10 0.00 13.57 35.75 287.10
2024-05-16 04:00 PM 24.50 16.80 818.10 16.12 278.00 -2.29 259.60 824.00 275.10 0.00 13.57 35.03 308.70
2024-05-16 03:00 PM 24.20 17.30 818.70 14.83 234.50 -2.14 259.60 1,018.00 2.30 0.00 13.57 34.79 223.30
2024-05-16 02:00 PM 22.30 22.10 819.10 12.50 198.80 -0.36 259.60 649.60 1.50 0.00 13.58 27.47 225.70
2024-05-16 01:00 PM 21.60 23.40 819.70 12.64 205.90 -0.17 259.60 662.20 275.10 0.00 13.61 27.47 217.40
2024-05-16 12:00 PM 21.50 25.90 820.30 12.82 197.50 1.15 259.60 1,068.00 1.20 0.00 13.61 28.07 223.20
2024-05-16 11:00 AM 20.10 25.80 820.60 11.91 198.60 -0.09 259.60 971.00 1.80 0.00 13.61 23.39 212.40
2024-05-16 10:00 AM 18.90 28.60 821.00 10.36 206.50 0.30 259.60 826.00 1.90 0.00 13.68 18.47 217.30
2024-05-16 09:00 AM 17.70 32.20 821.10 4.84 201.10 0.90 259.60 639.90 2.10 0.00 13.91 14.04 204.50
2024-05-16 08:00 AM 14.10 39.70 821.30 0.80 322.50 0.61 259.60 432.00 1.10 3.37 14.33 5.04 302.70
2024-05-16 07:00 AM 6.80 59.10 821.40 0.26 13.66 -0.62 259.60 233.00 1.50 7.00 14.65 3.60 14.56
2024-05-16 06:00 AM 1.80 68.70 821.20 4.59 35.38 -3.34 259.60 53.00 0.40 7.34 12.75 7.20 42.98
2024-05-16 05:00 AM 0.20 71.30 821.10 1.71 27.16 -4.38 259.60 -13.20 0.20 7.07 12.67 6.84 80.20
2024-05-16 04:00 AM 0.40 75.70 821.30 3.23 48.72 -3.39 259.60 -3.40 0.60 7.64 12.74 7.08 35.50
2024-05-16 03:00 AM 3.40 62.00 821.30 1.98 11.71 -3.19 259.60 -12.20 0.70 7.20 12.79 6.60 21.44
2024-05-16 02:00 AM 3.60 62.40 821.40 3.39 39.93 -2.91 259.60 -2.80 -0.30 7.21 12.96 6.96 64.69
2024-05-16 01:00 AM 3.80 56.70 821.50 6.48 351.80 -4.01 259.60 -3.30 0.60 7.43 13.01 10.20 311.30
2024-05-16 12:00 AM 5.90 53.20 821.70 7.20 22.47 -2.90 259.60 -3.30 0.20 7.06 13.12 11.16 47.36
2024-05-15 11:00 PM 10.10 37.70 821.70 8.90 54.85 -3.68 259.60 -4.50 0.50 7.48 13.25 12.36 67.60
2024-05-15 10:00 PM 10.90 32.90 821.80 8.10 55.97 -4.78 259.60 -3.80 1.10 7.55 13.40 12.60 56.39
2024-05-15 09:00 PM 10.80 36.30 821.70 9.23 49.31 -3.56 259.60 -5.80 0.40 7.21 13.58 13.20 42.94
2024-05-15 08:00 PM 13.60 32.10 821.30 9.93 34.34 -2.74 259.60 29.50 0.30 6.39 13.94 17.15 22.48
2024-05-15 07:00 PM 19.20 20.00 821.10 13.53 22.94 -4.29 259.60 154.90 275.10 2.78 13.67 23.51 11.09
2024-05-15 06:00 PM 20.60 18.40 821.10 13.03 11.82 -4.25 259.60 419.50 0.40 0.00 13.65 24.83 35.56
2024-05-15 05:00 PM 20.90 17.00 821.10 13.61 31.79 -5.05 259.60 625.70 0.60 0.00 13.68 26.39 354.60
2024-05-15 04:00 PM 20.90 17.30 821.30 12.93 20.74 -4.82 259.60 826.00 1.40 0.00 13.69 34.31 335.80
2024-05-15 03:00 PM 20.10 19.70 821.70 11.31 349.30 -3.75 259.60 972.00 275.10 0.00 13.71 22.91 0.61
2024-05-15 02:00 PM 19.50 27.00 822.10 9.61 25.51 0.02 259.60 1,074.00 1.10 0.00 13.71 23.27 26.94
2024-05-15 01:00 PM 18.20 29.70 822.30 9.50 49.86 0.22 259.60 843.00 275.10 0.00 13.71 20.03 89.50
2024-05-15 12:00 PM 17.40 20.70 822.80 10.20 42.71 -5.33 259.60 1,075.00 275.10 0.00 13.74 20.75 47.41
2024-05-15 11:00 AM 16.20 23.20 822.90 11.77 35.36 -4.83 259.60 994.00 -0.80 0.00 13.76 21.11 61.03
2024-05-15 10:00 AM 13.70 39.30 823.00 8.97 27.49 0.11 259.60 844.00 1.20 0.00 13.79 19.19 18.78
2024-05-15 09:00 AM 12.60 49.60 822.90 10.99 26.39 2.35 259.60 604.70 1.20 0.02 14.26 17.87 17.81
2024-05-15 08:00 AM 10.60 55.60 822.80 9.33 6.10 2.10 259.60 446.90 2.30 3.80 14.46 15.71 5.12
2024-05-15 07:00 AM 7.60 65.30 822.80 9.38 13.45 1.51 259.60 255.30 1.00 6.15 14.05 15.11 7.87
2024-05-15 06:00 AM 3.80 75.20 822.40 7.76 14.22 -0.18 259.60 36.40 0.40 7.28 12.78 12.60 24.46
2024-05-15 05:00 AM 4.20 71.70 822.30 11.16 34.07 -0.45 259.60 -4.30 0.50 6.94 12.70 17.87 13.10
2024-05-15 04:00 AM 6.30 61.90 822.40 10.81 28.93 -0.46 259.60 -4.20 0.90 6.92 12.67 17.39 47.72
2024-05-15 03:00 AM 4.70 65.50 822.30 8.41 31.10 -1.21 259.60 -4.20 0.60 6.90 12.78 13.20 19.46
2024-05-15 02:00 AM 8.40 51.80 822.10 5.56 17.85 -0.93 259.60 -6.40 -0.20 7.28 12.87 13.80 6.90
2024-05-15 01:00 AM 8.90 47.50 822.40 4.83 20.52 -1.65 259.60 -5.90 0.20 7.09 12.98 9.60 95.70
2024-05-15 12:00 AM 8.40 47.70 822.30 2.54 22.87 -2.06 259.60 -4.60 0.10 7.44 13.10 9.72 32.48
2024-05-14 11:00 PM 9.00 38.20 822.30 7.79 52.00 -4.49 259.60 -6.50 0.10 7.27 13.23 14.28 51.27
2024-05-14 10:00 PM 8.10 43.80 822.10 9.73 46.18 -3.48 259.60 -4.40 1.50 7.37 13.38 13.44 44.90
2024-05-14 09:00 PM 11.10 32.90 821.70 10.01 49.80 -4.60 259.60 -4.20 1.30 6.96 13.56 13.68 41.34
2024-05-14 08:00 PM 14.20 26.90 821.00 10.24 35.35 -4.58 259.60 17.00 0.50 5.59 13.86 22.67 23.35
2024-05-14 07:00 PM 19.00 17.00 820.50 12.85 18.47 -6.60 259.60 210.40 275.10 3.20 13.70 24.47 48.37
2024-05-14 06:00 PM 20.30 16.40 820.50 13.57 20.26 -6.01 259.60 408.40 1.40 0.00 13.68 24.11 20.55
2024-05-14 05:00 PM 20.80 19.10 820.60 11.45 24.38 -3.59 259.60 614.50 1.40 0.00 13.68 27.47 12.77
2024-05-14 04:00 PM 20.50 21.00 820.60 11.24 12.87 -2.56 259.60 808.00 1.80 0.00 13.77 28.31 0.06
2024-05-14 03:00 PM 19.50 20.50 820.90 11.85 46.28 -3.72 259.60 965.00 2.00 0.00 13.71 25.55 26.31
2024-05-14 02:00 PM 19.70 27.70 821.30 8.22 50.67 0.55 259.60 1,056.00 2.10 0.00 13.74 24.35 50.82
2024-05-14 01:00 PM 17.20 36.90 821.50 8.39 52.35 2.36 259.60 1,158.00 1.80 0.00 13.74 25.55 84.00
2024-05-14 12:00 PM 16.00 37.70 822.20 7.17 49.51 1.59 259.60 1,152.00 275.10 0.00 13.77 18.47 48.82
2024-05-14 11:00 AM 14.60 42.80 822.30 10.15 51.49 2.11 259.60 881.00 0.30 0.00 13.80 20.87 51.75
2024-05-14 10:00 AM 14.40 43.10 822.10 12.29 41.47 2.02 259.60 611.40 1.50 0.00 13.83 21.35 46.22
2024-05-14 09:00 AM 13.60 44.90 821.90 11.98 35.34 1.87 259.60 648.40 0.90 0.07 13.88 21.83 38.79
2024-05-14 08:00 AM 12.20 48.30 821.70 8.30 20.07 1.61 259.60 461.80 -0.10 3.22 14.38 17.63 40.86
2024-05-14 07:00 AM 8.60 61.30 821.50 7.95 351.80 1.58 259.60 243.50 0.10 6.03 14.64 11.76 351.90
2024-05-14 06:00 AM 1.60 80.80 820.80 5.61 4.69 -1.34 259.60 62.80 -0.80 6.63 12.84 8.52 23.94
2024-05-14 05:00 AM 3.80 70.90 821.00 5.24 347.90 -0.99 259.60 -12.00 -0.30 6.86 12.73 7.92 344.30
2024-05-14 04:00 AM 3.90 67.20 821.00 7.51 24.87 -1.62 259.60 -3.30 -0.50 7.20 12.75 12.36 24.90
2024-05-14 03:00 AM 4.80 64.30 820.80 6.96 29.44 -1.37 259.60 -4.20 -0.70 7.03 12.80 11.52 39.39
2024-05-14 02:00 AM 7.50 51.10 820.80 5.55 20.70 -1.95 259.60 -4.00 -0.90 6.79 12.87 10.32 51.09
2024-05-14 01:00 AM 5.60 56.90 820.70 6.04 15.22 -2.27 259.60 -4.70 -1.10 7.10 12.97 10.08 52.07
2024-05-14 12:00 AM 5.10 59.00 820.50 3.06 359.70 -2.25 259.60 -3.70 -0.80 7.20 13.08 8.28 67.29
2024-05-13 11:00 PM 8.40 50.30 820.70 1.36 29.39 -1.33 259.60 -2.50 -0.90 7.24 13.18 5.88 343.40
2024-05-13 10:00 PM 11.60 35.10 820.80 4.32 94.80 -3.30 259.60 -4.70 -2.10 7.02 13.35 6.36 82.90
2024-05-13 09:00 PM 11.40 34.20 820.40 2.00 82.90 -3.82 259.60 -3.70 -1.30 7.19 13.51 6.84 344.30
2024-05-13 08:00 PM 15.70 25.70 819.90 11.56 312.20 -3.90 259.60 0.90 0.60 5.48 13.77 27.11 318.50
2024-05-13 07:00 PM 19.30 20.40 819.60 18.23 314.80 -3.95 259.60 194.40 275.10 3.33 13.70 28.79 316.20
2024-05-13 06:00 PM 20.50 19.40 819.10 18.06 304.30 -3.62 259.60 392.20 0.50 0.00 13.67 31.07 290.40
2024-05-13 05:00 PM 21.60 20.00 819.20 15.89 294.90 -2.31 259.60 599.60 1.70 0.00 13.65 31.79 286.40
2024-05-13 04:00 PM 21.80 18.80 819.30 13.53 290.50 -2.98 259.60 799.70 275.10 0.00 13.65 29.87 292.30
2024-05-13 03:00 PM 21.20 21.50 819.80 13.98 285.90 -1.66 259.60 1,034.00 2.20 0.00 13.71 30.59 301.40
2024-05-13 02:00 PM 22.00 22.90 820.10 13.32 280.60 -0.13 259.60 561.70 1.00 0.00 13.65 26.51 262.20
2024-05-13 01:00 PM 20.70 24.50 820.20 12.48 258.00 -0.29 259.60 1,155.00 1.80 0.00 13.65 26.99 237.30
2024-05-13 12:00 PM 19.20 28.80 820.80 10.32 264.90 0.66 259.60 1,192.00 1.50 0.00 13.64 27.11 270.50
2024-05-13 11:00 AM 18.20 34.90 821.00 5.68 180.10 2.46 259.60 767.50 1.70 0.00 13.68 17.27 308.30
2024-05-13 10:00 AM 16.70 41.00 821.30 4.49 341.90 3.40 259.60 187.70 0.90 0.00 13.76 13.32 340.70
2024-05-13 09:00 AM 16.20 44.40 821.30 8.75 8.62 4.08 259.60 207.90 0.20 0.00 13.97 17.15 4.02
2024-05-13 08:00 AM 14.10 46.90 821.00 6.67 5.16 2.94 259.60 418.70 0.40 2.61 14.32 14.28 354.00
2024-05-13 07:00 AM 10.20 65.80 821.00 4.74 356.30 4.10 259.60 220.80 0.40 6.14 14.31 7.92 349.70
2024-05-13 06:00 AM 5.20 72.80 820.80 6.48 12.51 0.72 259.60 41.70 -1.00 7.06 12.76 10.68 48.46
2024-05-13 05:00 AM 4.60 76.70 820.30 7.74 354.10 0.87 259.60 -13.40 -0.80 7.17 12.68 11.64 347.30
2024-05-13 04:00 AM 1.50 88.50 820.30 3.57 17.75 -0.19 259.60 -12.80 0.00 7.25 12.71 8.28 52.03
2024-05-13 03:00 AM 3.70 80.60 820.40 4.71 6.76 0.68 259.60 -3.20 -0.80 6.92 12.79 7.68 17.97
2024-05-13 02:00 AM 6.30 68.20 820.50 4.52 12.23 0.88 259.60 -3.60 -0.40 7.25 12.86 7.56 65.62
2024-05-13 01:00 AM 7.40 65.20 820.60 4.09 15.35 1.30 259.60 -1.80 1.90 6.91 12.95 11.76 329.30
2024-05-13 12:00 AM 7.70 64.70 820.70 3.73 76.13 1.48 259.60 -5.00 -1.00 7.42 13.05 11.04 14.84
2024-05-12 11:00 PM 8.10 68.30 820.40 2.25 337.10 2.62 259.60 -3.90 0.20 7.54 13.17 6.96 0.05
2024-05-12 10:00 PM 12.10 56.90 820.20 7.34 86.20 3.83 259.60 -2.60 -0.30 7.87 13.30 15.00 69.55
2024-05-12 09:00 PM 15.60 40.00 820.20 19.18 177.40 2.06 259.60 -1.50 -0.40 8.58 13.47 41.75 226.90
2024-05-12 08:00 PM 18.20 31.20 819.40 7.10 290.70 0.90 259.50 1.40 0.90 3.76 13.72 28.79 222.60
2024-05-12 07:00 PM 20.50 24.00 819.00 9.90 288.10 -0.75 259.50 87.70 1.50 0.67 13.64 22.19 303.80
2024-05-12 06:00 PM 21.60 21.20 819.10 6.47 261.00 -1.52 259.50 494.90 1.60 0.00 13.65 17.63 271.60
2024-05-12 05:00 PM 21.10 22.30 819.40 5.63 277.70 -1.24 259.50 245.90 275.10 0.00 13.64 16.07 249.90
2024-05-12 04:00 PM 22.50 20.00 819.80 11.03 273.30 -1.56 259.50 241.70 -0.70 0.00 13.58 24.59 259.90
2024-05-12 03:00 PM 21.80 21.50 820.10 9.49 251.70 -1.16 259.50 1,201.00 275.10 0.00 13.65 17.99 182.10
2024-05-12 02:00 PM 20.80 23.10 820.40 9.56 230.70 -1.02 259.50 348.00 1.20 0.00 13.61 24.78 239.00
2024-05-12 01:00 PM 22.70 22.90 820.80 9.46 229.10 0.46 259.50 1,425.00 0.20 0.00 13.58 25.07 266.70
2024-05-12 12:00 PM 21.00 25.20 821.20 9.63 241.80 0.35 259.50 672.20 1.10 0.00 13.57 21.95 165.30
2024-05-12 11:00 AM 19.40 28.80 821.30 5.01 276.60 0.83 259.50 551.80 0.90 0.00 13.64 14.88 286.70
2024-05-12 10:00 AM 19.50 30.80 821.30 2.96 218.10 1.85 259.50 909.00 2.40 0.00 13.66 11.28 145.30
2024-05-12 09:00 AM 16.50 37.80 821.40 2.40 341.90 2.07 259.50 686.90 0.80 0.00 13.88 8.16 335.30
2024-05-12 08:00 AM 13.50 45.20 821.50 5.36 345.30 1.87 259.50 463.50 0.80 2.70 14.38 8.76 338.00
2024-05-12 07:00 AM 7.50 61.50 821.50 5.09 2.86 0.59 259.50 227.00 1.40 5.96 14.38 9.24 21.29
2024-05-12 06:00 AM -0.30 85.10 821.30 3.51 31.13 -2.50 259.50 42.00 0.00 6.84 12.76 7.56 44.01
2024-05-12 05:00 AM 1.10 77.00 821.00 2.98 331.50 -2.48 259.50 -12.50 0.30 6.28 12.67 8.16 340.90
2024-05-12 04:00 AM 3.00 69.20 820.80 4.84 44.45 -2.09 259.50 -13.00 -0.30 6.85 12.70 9.24 95.20
2024-05-12 03:00 AM 2.00 76.20 820.70 1.01 337.90 -1.75 259.50 -3.00 -1.50 6.75 12.80 5.28 326.40
2024-05-12 02:00 AM 3.10 69.20 820.80 4.19 43.97 -1.99 259.50 -3.00 -1.00 6.94 12.87 7.20 68.85
2024-05-12 01:00 AM 5.00 62.40 820.80 3.91 19.96 -1.58 259.50 -3.00 -0.80 6.75 12.96 8.76 48.60
2024-05-12 12:00 AM 3.80 67.00 821.00 4.03 26.92 -1.76 259.50 -0.20 -0.20 6.71 13.07 9.00 95.80
2024-05-11 11:00 PM 8.00 50.80 821.00 2.87 2.65 -1.57 259.50 -2.90 -2.00 7.29 13.18 7.80 39.24
2024-05-11 10:00 PM 9.20 46.40 821.00 3.81 85.80 -1.70 259.50 -4.70 -0.50 6.90 13.32 9.60 108.90
2024-05-11 09:00 PM 10.80 42.30 820.60 6.23 40.64 -1.50 259.50 -4.60 -0.50 6.55 13.49 12.24 354.60
2024-05-11 08:00 PM 16.50 26.70 820.00 8.30 359.50 -2.70 259.50 2.40 0.40 4.80 13.72 17.75 317.10
2024-05-11 07:00 PM 20.70 19.90 819.80 6.66 351.90 -3.12 259.50 217.50 275.10 0.93 13.66 19.67 351.80
2024-05-11 06:00 PM 20.50 18.60 819.80 5.87 53.27 -4.19 259.50 59.60 1.40 0.00 13.67 17.63 6.88
2024-05-11 05:00 PM 21.40 18.30 819.90 7.12 19.50 -3.66 259.50 639.10 275.10 0.00 13.65 21.35 36.54
2024-05-11 04:00 PM 20.80 17.60 820.30 8.24 353.70 -4.67 259.50 806.00 1.00 0.00 13.68 36.35 323.50
2024-05-11 03:00 PM 20.40 18.40 820.80 7.60 43.32 -4.41 259.50 962.00 275.10 0.00 13.70 17.27 15.83
2024-05-11 02:00 PM 19.90 21.30 821.20 7.35 351.00 -2.87 259.50 1,056.00 0.70 0.00 13.70 20.27 4.71
2024-05-11 01:00 PM 18.80 23.90 821.80 7.95 45.13 -2.24 259.50 1,097.00 275.10 0.00 13.76 20.51 37.74
2024-05-11 12:00 PM 18.50 24.40 822.30 7.02 84.30 -2.21 259.50 1,066.00 2.00 0.00 13.67 19.19 35.18
2024-05-11 11:00 AM 16.90 29.80 822.60 8.35 95.60 -0.87 259.50 981.00 275.10 0.00 13.69 21.95 122.10
2024-05-11 10:00 AM 16.50 28.70 822.70 8.05 55.29 -1.73 259.50 835.00 0.60 0.00 13.75 20.15 15.14
2024-05-11 09:00 AM 15.60 30.30 822.70 3.46 336.40 -1.77 259.50 639.30 1.40 0.00 14.04 13.68 31.94
2024-05-11 08:00 AM 11.50 46.70 822.80 2.43 7.65 0.50 259.50 434.30 1.20 3.38 14.46 6.84 9.81
2024-05-11 07:00 AM 4.10 70.90 822.70 0.70 44.42 -0.70 259.50 221.50 1.90 6.31 13.87 3.36 47.35
2024-05-11 06:00 AM -1.40 83.90 822.30 4.81 34.43 -3.77 259.50 28.10 0.60 6.71 12.71 7.80 45.77
2024-05-11 05:00 AM 0.30 74.00 822.30 2.90 20.65 -3.79 259.50 -14.40 0.00 6.66 12.64 6.36 55.93
2024-05-11 04:00 AM 0.50 77.60 822.50 4.76 21.68 -2.96 259.50 -12.60 -0.20 6.70 12.68 7.68 332.90
2024-05-11 03:00 AM 0.50 77.20 822.50 4.27 355.60 -3.03 259.50 -13.50 0.40 6.55 12.71 7.32 332.80
2024-05-11 02:00 AM 2.00 71.60 822.80 3.21 14.24 -2.59 259.50 -14.00 0.10 6.69 12.81 6.96 10.10
2024-05-11 01:00 AM 1.50 76.00 823.00 2.76 26.64 -2.27 259.50 -13.40 1.00 6.97 12.98 6.84 16.61
2024-05-11 12:00 AM 3.10 68.10 823.20 3.63 357.30 -2.21 259.50 -3.80 0.60 6.69 13.14 6.48 0.35
2024-05-10 11:00 PM 5.40 61.80 823.20 6.32 20.65 -1.34 259.50 -3.20 1.30 6.77 13.27 9.60 38.30
2024-05-10 10:00 PM 7.10 55.60 823.30 7.59 38.81 -1.18 259.50 -4.40 0.90 6.55 13.41 10.20 41.23
2024-05-10 09:00 PM 7.50 51.80 823.00 7.72 48.19 -1.77 259.50 -4.50 0.90 6.37 13.58 10.08 42.98
2024-05-10 08:00 PM 11.70 40.00 822.70 8.06 32.99 -1.45 259.50 2.10 0.50 5.29 13.77 19.91 36.97
2024-05-10 07:00 PM 16.50 27.50 822.40 9.73 41.51 -2.30 259.50 192.50 275.10 2.32 13.77 20.15 46.30
2024-05-10 06:00 PM 16.20 27.10 822.80 10.25 30.17 -2.76 259.50 97.60 0.50 0.00 13.76 24.71 42.27
2024-05-10 05:00 PM 17.80 25.20 823.10 11.53 49.83 -2.37 259.50 188.30 1.10 0.00 13.82 29.87 47.80
2024-05-10 04:00 PM 17.40 26.20 823.30 12.40 33.29 -2.19 259.50 245.60 275.10 0.00 13.82 30.35 24.29
2024-05-10 03:00 PM 17.60 26.80 823.70 13.37 39.78 -1.71 259.50 1,065.00 0.80 0.00 13.80 28.07 56.80
2024-05-10 02:00 PM 17.20 28.20 824.20 15.54 35.97 -1.36 259.50 1,164.00 0.90 0.00 13.76 36.47 52.03
2024-05-10 01:00 PM 16.40 28.60 824.70 13.08 47.20 -1.86 259.50 334.80 275.10 0.00 13.80 28.79 21.21
2024-05-10 12:00 PM 15.00 32.40 825.20 11.68 38.91 -1.38 259.50 1,131.00 275.10 0.00 13.79 26.27 51.39
2024-05-10 11:00 AM 14.60 32.00 825.60 12.40 39.22 -1.90 259.50 966.00 -1.00 0.00 13.83 23.27 49.85
2024-05-10 10:00 AM 12.90 40.90 825.80 14.09 36.87 -0.06 259.50 830.00 0.50 0.00 13.86 24.23 42.00
2024-05-10 09:00 AM 12.50 42.80 825.80 10.90 27.91 0.21 259.50 634.10 0.50 0.25 14.08 19.43 60.99
2024-05-10 08:00 AM 10.60 48.30 825.70 7.06 20.63 0.14 259.50 422.40 2.50 3.45 14.42 14.88 51.08
2024-05-10 07:00 AM 3.90 79.00 825.70 4.47 4.88 0.60 259.50 213.00 2.60 6.30 13.93 10.44 48.45
2024-05-10 06:00 AM 3.50 69.80 825.40 7.76 16.94 -1.49 259.50 5.50 0.10 6.59 12.75 12.36 347.30
2024-05-10 05:00 AM -0.50 82.50 825.40 5.05 6.25 -3.11 259.50 -14.40 0.80 6.55 12.70 10.56 35.83
2024-05-10 04:00 AM -1.70 84.50 825.40 3.57 351.20 -3.97 259.50 -13.40 0.80 6.82 12.73 9.48 83.20
2024-05-10 03:00 AM 0.60 79.00 825.30 5.27 20.14 -2.62 259.50 -13.20 0.10 6.87 12.85 11.16 75.17
2024-05-10 02:00 AM 3.00 70.70 825.30 6.94 47.91 -1.80 259.50 -3.40 0.40 6.71 13.00 10.56 46.82
2024-05-10 01:00 AM 6.10 60.10 825.50 4.78 48.00 -1.06 259.50 -2.40 -0.40 6.40 13.11 11.52 66.57
2024-05-10 12:00 AM 6.90 54.50 825.60 5.92 320.40 -1.64 259.50 -5.40 -1.60 6.39 13.23 12.12 286.10
2024-05-09 11:00 PM 6.00 61.40 825.40 6.06 316.70 -0.86 259.50 -4.00 -0.10 6.79 13.37 12.84 307.80
2024-05-09 10:00 PM 5.20 63.20 825.50 6.04 8.29 -1.22 259.50 -4.70 -0.90 6.87 13.51 12.36 354.60
2024-05-09 09:00 PM 6.10 57.60 825.20 6.34 28.65 -1.63 259.50 -4.40 -0.10 6.34 13.68 12.60 60.44
2024-05-09 08:00 PM 11.30 40.70 824.80 10.82 64.83 -1.57 259.50 2.50 0.70 5.31 13.96 20.27 60.66
2024-05-09 07:00 PM 13.70 34.00 824.60 14.26 60.46 -1.87 259.50 60.70 -0.10 3.86 13.92 26.75 25.99
2024-05-09 06:00 PM 14.90 30.70 824.30 16.61 50.90 -2.20 259.50 150.70 275.10 0.61 13.87 29.99 43.36
2024-05-09 05:00 PM 15.50 29.30 824.30 13.91 64.34 -2.31 259.50 765.50 275.10 0.00 13.87 29.15 50.80
2024-05-09 04:00 PM 15.40 30.30 824.40 13.91 69.85 -1.94 259.50 620.20 1.90 0.00 13.86 31.07 73.58
2024-05-09 03:00 PM 14.10 37.40 824.60 15.47 53.30 -0.21 259.50 1,191.00 0.70 0.00 13.90 33.23 75.58
2024-05-09 02:00 PM 14.50 36.80 824.70 15.66 53.35 -0.08 259.50 1,141.00 2.20 0.00 13.90 29.87 80.70
2024-05-09 01:00 PM 12.80 40.50 824.90 14.11 36.94 -0.29 259.50 1,352.00 1.90 0.00 13.92 35.03 100.70
2024-05-09 12:00 PM 10.90 43.10 825.30 14.22 38.70 -1.15 259.50 1,186.00 275.10 0.00 13.95 26.27 55.19
2024-05-09 11:00 AM 9.90 49.40 825.40 15.53 41.90 -0.20 259.50 965.00 1.90 0.00 13.99 25.91 54.01
2024-05-09 10:00 AM 7.80 52.90 825.60 16.27 46.19 -1.20 259.50 816.00 1.50 0.00 14.15 25.67 79.18
2024-05-09 09:00 AM 5.50 60.70 825.60 15.78 45.80 -1.49 259.50 627.90 1.00 2.97 14.54 24.59 34.43
2024-05-09 08:00 AM 3.90 65.20 825.60 11.68 42.13 -2.03 259.50 422.30 -0.20 5.16 14.65 21.59 40.99
2024-05-09 07:00 AM 1.80 75.70 825.20 5.09 346.00 -2.03 259.50 212.30 1.10 6.24 13.62 12.36 72.17
2024-05-09 06:00 AM -2.10 88.50 824.70 7.01 37.79 -3.74 259.50 0.80 0.40 6.55 12.64 11.52 44.95
2024-05-09 05:00 AM -2.00 87.10 824.40 9.27 24.88 -3.86 259.50 -12.60 0.60 6.56 12.61 17.61 6.51
2024-05-09 04:00 AM -0.40 77.10 823.80 9.27 8.55 -3.92 259.50 -13.80 0.10 6.74 12.66 21.23 7.15
2024-05-09 01:00 AM -3.20 78.30 824.40 6.54 9.43 -6.44 259.50 -14.50 0.40 6.75 12.86 11.76 24.21
2024-05-09 12:00 AM -0.60 70.70 824.30 5.26 5.25 -5.26 259.50 -12.60 -0.30 6.84 13.05 9.48 349.30
2024-05-08 11:00 PM -2.80 77.50 824.60 5.14 34.91 -6.18 259.50 -14.70 -0.40 6.83 13.26 7.92 25.86
2024-05-08 10:00 PM 0.10 65.30 824.40 5.38 27.43 -5.64 259.50 -15.30 -1.10 6.85 13.50 10.92 17.90
2024-05-08 09:00 PM -0.50 67.80 823.90 3.90 30.35 -5.72 259.50 -16.40 0.00 6.87 13.76 8.88 24.12
2024-05-08 08:00 PM 2.80 52.10 823.60 12.24 26.91 -6.06 259.50 1.20 -0.50 6.28 14.10 26.87 39.28
2024-05-08 07:00 PM 6.10 41.60 823.00 16.94 34.60 -5.98 259.50 185.20 275.10 5.16 14.11 26.99 9.51
2024-05-08 06:00 PM 7.10 39.40 823.00 18.01 41.49 -5.79 259.50 385.20 275.10 2.11 14.08 35.27 54.50
2024-05-08 05:00 PM 7.00 39.80 822.80 19.13 43.67 -5.74 259.50 569.00 -0.20 2.41 14.11 32.75 48.20
2024-05-08 04:00 PM 7.70 35.30 822.90 18.06 50.57 -6.69 259.50 538.80 0.20 0.00 14.05 32.75 42.77
2024-05-08 03:00 PM 7.80 36.90 823.00 16.57 49.15 -6.02 259.50 908.00 275.10 0.00 14.08 37.67 46.29
2024-05-08 02:00 PM 6.90 39.70 823.20 16.05 50.11 -5.87 259.50 842.00 275.10 0.00 14.11 29.03 35.11
2024-05-08 01:00 PM 6.50 37.30 823.10 14.97 34.73 -7.04 259.50 1,071.00 275.10 0.00 14.11 33.47 42.05
2024-05-08 12:00 PM 4.80 45.30 823.60 13.62 32.87 -6.04 259.50 1,019.00 275.10 0.00 14.15 28.67 49.34
2024-05-08 11:00 AM 3.30 51.30 824.20 13.31 30.23 -5.80 259.50 1,069.00 275.10 1.28 14.17 29.03 25.12
2024-05-08 10:00 AM 1.50 53.50 824.20 14.65 36.46 -6.92 259.50 280.90 -0.10 2.23 14.18 27.11 18.66
2024-05-08 09:00 AM 1.90 54.40 824.00 10.77 49.75 -6.33 259.50 645.00 1.10 3.16 14.66 20.63 46.81
2024-05-08 08:00 AM -0.10 67.60 823.90 9.40 22.35 -5.37 259.50 419.80 0.40 5.58 14.76 17.03 29.62
2024-05-08 07:00 AM -2.50 79.60 823.70 5.78 358.30 -5.54 259.50 216.20 0.30 6.68 14.19 11.64 7.07
2024-05-08 06:00 AM -6.20 86.80 823.50 3.67 351.60 -8.04 259.50 1.50 -0.40 6.72 12.64 7.08 13.05
2024-05-08 05:00 AM -5.40 84.70 823.60 7.86 43.27 -7.57 259.50 -13.60 -0.90 6.61 12.62 14.64 40.28
2024-05-08 04:00 AM -4.70 82.40 823.50 7.13 29.51 -7.24 259.50 -13.30 -0.80 6.73 12.67 10.80 1.75
2024-05-08 03:00 AM -5.40 84.70 823.30 7.43 33.29 -7.57 259.50 -12.70 -0.30 6.76 12.69 13.20 58.38
2024-05-08 02:00 AM -3.70 76.80 823.30 9.32 27.17 -7.18 259.50 -13.20 0.10 6.40 12.76 15.83 31.32
2024-05-08 01:00 AM -4.50 78.80 823.30 6.11 34.60 -7.62 259.50 -13.80 -0.40 6.95 12.92 11.40 66.82
2024-05-08 12:00 AM -2.90 73.00 823.20 7.73 43.07 -7.06 259.50 -14.60 -0.30 6.68 13.11 13.20 62.37
2024-05-07 11:00 PM -2.10 69.80 823.10 9.20 27.94 -6.87 259.50 -14.60 -0.70 7.11 13.33 15.35 41.58
2024-05-07 10:00 PM -0.90 63.90 822.80 10.70 25.48 -6.87 259.50 -15.20 -0.50 6.69 13.50 20.39 2.18
2024-05-07 09:00 PM 2.30 50.50 822.40 10.06 18.92 -6.93 259.50 -14.50 -0.60 6.57 13.82 20.63 0.05
2024-05-07 08:00 PM 3.30 43.90 821.90 16.05 350.40 -7.82 259.50 6.10 -0.10 6.37 14.19 30.95 343.50
2024-05-07 07:00 PM 4.70 38.70 821.70 19.67 343.30 -8.18 259.50 69.10 0.30 5.30 14.20 31.91 338.90
2024-05-07 06:00 PM 5.30 35.20 821.50 20.86 339.30 -8.86 259.50 333.00 275.10 4.01 14.17 34.31 341.80
2024-05-07 05:00 PM 5.30 33.70 821.50 20.81 339.30 -9.41 259.50 271.00 1.80 2.40 14.14 36.47 345.40
2024-05-07 04:00 PM 5.70 35.30 821.40 22.58 332.00 -8.46 259.50 362.90 275.10 0.62 14.12 42.71 297.00
2024-05-07 03:00 PM 5.50 35.00 821.40 22.52 332.20 -8.75 259.50 402.30 275.10 0.00 14.15 38.75 320.10
2024-05-07 02:00 PM 4.80 37.60 821.70 20.63 339.00 -8.46 259.50 1,493.00 275.10 0.00 14.17 41.39 332.40
2024-05-07 01:00 PM 4.70 36.90 821.30 19.85 336.30 -8.79 259.50 1,298.00 275.10 0.00 14.17 37.67 329.50
2024-05-07 12:00 PM 3.80 39.10 821.20 20.27 337.40 -8.86 259.50 431.30 3.20 0.00 14.21 39.71 343.80
2024-05-07 11:00 AM 1.80 48.20 821.00 15.62 335.60 -7.99 259.50 411.50 1.10 2.34 14.27 29.99 299.30
2024-05-07 10:00 AM 2.40 57.10 820.80 14.40 346.20 -5.23 259.50 512.10 3.30 4.28 14.38 27.59 7.63
2024-05-07 09:00 AM -0.30 71.50 820.80 10.72 8.80 -4.82 259.50 212.30 275.10 5.39 14.79 21.11 327.80
2024-05-07 08:00 AM -0.60 72.10 820.40 1.44 33.85 -5.00 259.50 222.70 0.70 5.96 14.83 8.64 18.69
2024-05-07 07:00 AM -2.80 84.00 820.10 5.04 42.00 -5.13 259.50 37.40 -0.80 6.03 13.29 9.12 64.10
2024-05-07 06:00 AM -5.20 86.60 819.60 5.31 35.53 -7.09 259.50 -0.40 -0.60 6.38 12.66 11.76 2.63
2024-05-07 05:00 AM -2.50 75.00 819.20 5.57 61.36 -6.32 259.50 -14.10 -0.40 6.49 12.65 9.84 37.27
2024-05-07 04:00 AM -4.40 83.90 819.00 4.82 16.33 -6.71 259.50 -13.60 -0.80 6.14 12.69 10.32 11.53
2024-05-07 03:00 AM -2.20 77.80 818.60 5.33 6.30 -5.55 259.50 -13.90 -0.80 6.49 12.71 15.11 10.34
2024-05-07 02:00 AM -1.30 78.10 818.30 5.73 0.13 -4.62 259.50 -14.30 -0.50 6.38 12.78 13.68 337.50
2024-05-07 01:00 AM -1.00 82.00 817.80 10.22 327.70 -3.68 259.50 -14.00 -0.20 6.21 12.95 26.51 308.20
2024-05-07 12:00 AM 1.90 71.10 817.80 11.86 299.00 -2.78 259.50 -12.00 0.20 6.19 13.15 24.23 317.00
2024-05-06 11:00 PM 1.60 83.70 817.60 16.74 266.70 -0.86 259.50 -12.40 0.50 6.34 13.38 32.75 280.30
2024-05-06 10:00 PM 3.30 69.80 817.30 15.88 268.40 -1.68 259.50 -3.70 1.00 6.24 13.58 35.51 284.50
2024-05-06 09:00 PM 3.90 65.30 817.10 15.68 278.70 -2.01 259.50 -1.50 0.70 6.03 13.74 29.15 290.10
2024-05-06 08:00 PM 5.10 55.60 816.90 17.99 277.50 -3.05 259.50 0.80 1.40 5.81 13.96 30.23 290.40
2024-05-06 07:00 PM 6.00 50.50 817.20 20.78 277.80 -3.50 259.50 67.60 0.80 5.06 14.14 40.55 281.60
2024-05-06 06:00 PM 6.90 43.30 816.90 20.10 266.20 -4.72 259.50 180.00 275.10 4.47 14.14 32.75 261.70
2024-05-06 05:00 PM 7.60 40.00 817.20 20.57 277.60 -5.14 259.50 453.80 275.10 2.17 14.08 34.91 268.60
2024-05-06 04:00 PM 8.60 39.90 817.60 21.79 287.00 -4.27 259.50 812.00 275.10 0.00 14.08 37.67 297.30
2024-05-06 03:00 PM 9.20 38.50 817.80 15.44 276.30 -4.21 259.50 948.00 0.60 0.00 14.05 37.43 312.70
2024-05-06 02:00 PM 7.30 48.10 817.80 11.60 208.60 -2.95 259.50 247.70 1.20 0.00 14.04 26.87 244.10
2024-05-06 01:00 PM 6.60 54.00 818.30 10.37 205.30 -2.04 259.50 385.50 275.10 0.00 14.08 23.87 201.10
2024-05-06 12:00 PM 6.10 58.30 818.70 9.57 197.10 -1.47 259.50 433.40 1.40 0.00 14.08 22.55 166.60
2024-05-06 11:00 AM 3.80 67.10 819.20 9.63 189.60 -1.74 259.50 901.00 0.70 0.88 14.17 19.19 164.80
2024-05-06 10:00 AM 3.60 68.10 819.20 11.54 209.50 -1.73 259.50 590.10 0.00 2.67 14.20 21.83 203.50
2024-05-06 09:00 AM 2.10 70.10 819.40 7.01 210.10 -2.78 259.50 314.40 2.50 5.01 14.70 18.11 227.60
2024-05-06 08:00 AM 1.00 75.60 819.30 8.22 257.60 -2.82 259.50 182.90 0.80 6.36 14.82 16.67 262.50
2024-05-06 07:00 AM 0.00 77.00 818.80 4.91 278.30 -3.55 259.50 57.30 0.30 6.92 13.77 17.87 312.40
2024-05-06 06:00 AM -1.60 82.40 818.60 1.83 220.50 -4.20 259.50 -0.60 -0.40 7.04 12.63 7.68 248.90
2024-05-06 05:00 AM -1.20 82.00 818.00 6.55 245.00 -3.88 259.50 -14.00 -0.10 6.77 12.56 13.32 242.80
2024-05-06 04:00 AM -0.50 80.60 817.60 7.07 230.40 -3.42 259.50 -13.20 0.60 6.63 12.67 23.03 206.50
2024-05-06 03:00 AM 0.30 79.50 817.60 9.52 186.50 -2.83 259.50 -11.00 1.10 6.79 12.70 18.71 202.10
2024-05-06 02:00 AM 0.00 81.60 817.40 8.98 184.20 -2.77 259.50 -12.80 2.50 6.77 12.73 15.00 167.80
2024-05-06 01:00 AM 0.10 82.50 817.10 11.00 200.10 -2.52 259.50 -11.30 1.80 6.85 12.86 22.79 188.00
2024-05-06 12:00 AM 0.00 83.30 817.10 10.64 215.30 -2.49 259.50 -11.60 -0.20 6.67 13.04 23.15 199.90
2024-05-05 11:00 PM -0.10 83.20 816.90 5.32 241.70 -2.61 259.50 -11.80 0.80 6.85 13.30 15.23 230.80
2024-05-05 10:00 PM -0.60 87.10 816.70 12.35 295.70 -2.48 259.50 -12.00 1.20 6.76 13.49 27.11 307.10
2024-05-05 09:00 PM -0.40 85.00 816.20 11.06 314.20 -2.61 259.50 -12.30 0.00 6.79 13.74 21.83 323.70
2024-05-05 08:00 PM -0.30 82.90 815.30 11.81 319.90 -2.85 259.50 -11.00 -0.30 6.52 14.03 20.87 316.70
2024-05-05 07:00 PM 0.00 79.90 815.10 10.83 317.50 -3.05 259.50 6.80 -0.10 6.32 14.32 28.43 348.10
2024-05-05 06:00 PM 0.00 81.20 814.60 19.84 307.30 -2.84 259.50 155.60 275.10 6.51 14.37 34.31 303.70
2024-05-05 05:00 PM 0.00 84.10 814.40 18.91 303.50 -2.36 259.50 151.00 0.50 6.03 14.39 35.27 296.80
2024-05-05 04:00 PM 0.00 80.40 813.50 22.76 301.40 -2.97 259.50 230.90 0.60 5.54 14.33 36.59 313.50
2024-05-05 03:00 PM 0.00 80.00 813.00 18.88 298.10 -3.04 259.50 371.50 275.10 5.76 14.36 33.59 291.40
2024-05-05 02:00 PM -1.20 84.10 812.80 18.69 294.40 -3.54 259.50 239.90 -1.20 6.66 14.39 29.87 284.60
2024-05-05 01:00 PM -1.60 84.70 812.40 16.23 282.10 -3.84 259.50 214.30 275.10 6.51 14.39 27.71 274.30
2024-05-05 12:00 PM -1.90 83.60 812.10 14.77 274.50 -4.31 259.50 319.80 1.30 6.33 14.42 24.83 264.00
2024-05-05 11:00 AM -2.50 86.10 811.70 13.37 270.60 -4.50 259.50 241.30 275.10 7.43 14.44 26.75 274.30
2024-05-05 10:00 AM -2.70 84.80 811.40 11.70 254.10 -4.90 259.50 161.90 1.10 7.57 14.85 24.35 196.50
2024-05-05 09:00 AM -2.70 82.70 810.70 13.14 240.90 -5.23 259.50 190.70 0.90 7.21 14.89 28.91 231.70
2024-05-05 08:00 AM -2.90 82.00 810.30 11.97 244.60 -5.54 259.50 102.10 1.10 7.34 14.90 22.55 276.80
2024-05-05 07:00 AM -3.00 83.00 809.80 11.24 255.60 -5.48 259.50 29.10 0.10 7.53 12.89 25.31 266.60
2024-05-05 06:00 AM -3.00 84.60 809.00 16.35 290.50 -5.23 259.50 -3.40 0.50 7.37 12.59 34.91 278.50
2024-05-05 05:00 AM -2.60 83.60 808.40 15.42 286.50 -4.99 259.50 -10.30 0.30 7.02 12.60 30.83 280.20
2024-05-05 04:00 AM -2.30 85.80 807.80 9.63 265.20 -4.35 259.50 -11.00 -0.40 7.36 12.62 22.67 288.00
2024-05-05 03:00 AM -2.10 86.30 807.30 15.03 290.80 -4.08 259.50 -11.00 0.30 7.55 12.65 27.71 291.20
2024-05-05 02:00 AM -2.10 89.70 806.80 13.55 281.40 -3.56 259.50 -10.00 0.20 6.82 12.72 27.59 322.70
2024-05-05 01:00 AM -1.50 91.30 806.60 10.07 252.30 -2.73 259.50 -11.30 0.50 6.36 12.86 20.99 264.40
2024-05-05 12:00 AM -1.30 92.40 806.40 9.00 246.00 -2.37 259.50 -11.00 0.20 6.66 13.05 21.35 242.30
2024-05-04 11:00 PM -1.10 85.80 806.30 9.29 243.30 -3.17 259.50 -11.30 0.60 6.40 13.26 20.51 228.50
2024-05-04 10:00 PM -0.90 85.10 806.50 9.96 247.30 -3.09 259.50 -11.50 1.40 6.37 13.49 17.75 247.30
2024-05-04 09:00 PM -0.50 85.30 805.80 7.14 239.60 -2.66 259.50 -14.10 1.50 6.36 13.74 15.95 239.60
2024-05-04 08:00 PM -0.20 93.00 805.00 16.40 251.00 -1.19 259.50 -10.20 1.00 6.82 14.06 35.39 211.00
2024-05-04 07:00 PM 1.60 85.10 804.40 20.65 212.40 -0.63 259.50 31.00 2.50 6.10 14.30 34.31 218.00
2024-05-04 06:00 PM 2.30 86.40 804.40 17.66 209.40 0.27 259.50 18.00 0.90 6.40 14.30 31.19 251.00
2024-05-04 05:00 PM 3.00 88.30 804.70 20.00 212.20 1.26 259.40 35.00 1.50 6.12 14.30 35.39 188.60
2024-05-04 04:00 PM 4.30 82.50 804.70 21.84 187.90 1.59 259.40 52.70 0.50 6.18 14.31 44.75 205.10
2024-05-04 03:00 PM 3.20 90.30 805.30 23.44 178.60 1.77 259.30 36.30 1.40 6.54 14.29 40.31 171.50
2024-05-04 02:00 PM 4.20 85.40 805.80 23.49 190.90 1.97 258.10 48.90 0.70 6.23 14.27 41.75 198.20
2024-05-04 01:00 PM 5.00 80.00 806.00 25.27 203.70 1.84 257.20 45.70 1.10 5.91 14.20 40.55 215.50
2024-05-04 12:00 PM 7.10 63.30 806.60 25.14 207.30 0.61 257.20 155.10 1.20 4.69 14.14 41.39 189.20
2024-05-04 11:00 AM 9.00 45.90 806.10 18.49 199.70 -2.03 257.20 94.30 0.30 4.74 14.55 34.55 161.20
2024-05-04 10:00 AM 8.50 47.50 806.40 23.97 188.70 -2.02 257.20 86.20 0.40 4.55 14.56 42.59 174.20
2024-05-04 09:00 AM 9.40 41.80 806.50 25.04 185.20 -2.93 257.20 62.60 0.00 4.54 14.55 45.34 203.10
2024-05-04 08:00 AM 8.90 45.40 806.70 23.60 193.70 -2.27 257.20 77.60 0.30 4.93 13.66 35.27 212.00
2024-05-04 07:00 AM 9.20 42.60 807.10 19.02 199.30 -2.85 257.20 26.40 -0.40 5.21 12.95 31.79 188.40
2024-05-04 06:00 AM 8.80 44.50 807.80 16.35 207.40 -2.63 257.20 1.50 -0.70 5.42 12.75 28.79 199.00
2024-05-04 05:00 AM 6.90 44.60 808.70 12.43 222.90 -4.33 257.20 -2.10 0.40 5.74 12.76 24.71 185.50
2024-05-04 04:00 AM 8.30 44.30 809.40 11.18 221.10 -3.14 257.20 -1.20 0.40 5.50 12.79 24.47 186.40
2024-05-04 03:00 AM 7.50 41.60 810.30 8.98 225.00 -4.71 257.20 -4.00 0.60 6.06 12.86 14.64 213.40
2024-05-04 02:00 AM 7.60 35.70 811.10 16.11 218.40 -6.63 257.20 -3.80 0.10 5.68 12.95 28.67 201.90
2024-05-04 01:00 AM 10.00 31.30 811.90 14.74 205.90 -6.23 257.20 -2.40 -0.10 5.64 13.08 28.31 182.90
2024-05-04 12:00 AM 8.60 31.30 813.10 11.77 221.00 -7.45 257.20 -2.30 0.40 5.51 13.18 20.15 220.40